Time;durP1;ratioP1;P1;durP2;ratioP2;P2;SDS_P1;SDS_P2;PMS_P1;PMS_P2;Temp;Humidity;BMP_temperature;BMP_pressure;BME280_temperature;BME280_humidity;BME280_pressure;Samples;Min_cycle;Max_cycle;Signal;HPM_P1;HPM_P2
2023/08/17 00:02:12;;;;;;;5.30;3.90;;;19.10;61.10;;;;;;5073358;28;20202;-69
2023/08/17 00:04:37;;;;;;;5.40;4.00;;;19.10;60.70;;;;;;5073626;28;20408;-70
2023/08/17 00:07:03;;;;;;;4.90;4.30;;;19.10;60.80;;;;;;5073532;28;20415;-70
2023/08/17 00:09:29;;;;;;;8.13;4.70;;;19.00;62.20;;;;;;5073553;28;20206;-70
2023/08/17 00:11:54;;;;;;;5.43;4.53;;;19.00;61.80;;;;;;5073281;28;20304;-70
2023/08/17 00:14:20;;;;;;;4.47;4.00;;;19.00;62.40;;;;;;5074709;28;20170;-71
2023/08/17 00:16:46;;;;;;;5.60;5.07;;;19.00;62.20;;;;;;5074945;28;20174;-70
2023/08/17 00:19:11;;;;;;;6.60;5.30;;;19.00;63.40;;;;;;5075701;28;20174;-69
2023/08/17 00:21:37;;;;;;;8.73;5.50;;;18.90;63.60;;;;;;5074538;28;20190;-70
2023/08/17 00:24:03;;;;;;;4.80;3.97;;;18.90;65.00;;;;;;5075280;28;20193;-68
2023/08/17 00:26:29;;;;;;;5.23;4.53;;;18.90;64.70;;;;;;5074709;28;20412;-68
2023/08/17 00:28:54;;;;;;;9.73;4.57;;;18.80;64.50;;;;;;5074607;28;20501;-69
2023/08/17 00:31:20;;;;;;;5.37;4.33;;;18.80;64.70;;;;;;5073446;28;20661;-69
2023/08/17 00:33:46;;;;;;;5.03;4.33;;;18.80;64.20;;;;;;5073148;28;20231;-69
2023/08/17 00:36:11;;;;;;;5.50;4.63;;;18.80;65.00;;;;;;5073151;28;20178;-69
2023/08/17 00:38:37;;;;;;;8.30;5.17;;;18.80;64.30;;;;;;5072982;28;20181;-69
2023/08/17 00:41:02;;;;;;;8.30;4.70;;;18.70;65.00;;;;;;5073101;28;20227;-69
2023/08/17 00:43:28;;;;;;;4.87;4.40;;;18.70;65.60;;;;;;5072890;28;20214;-70
2023/08/17 00:45:53;;;;;;;5.60;4.83;;;18.70;66.70;;;;;;5072838;28;20257;-69
2023/08/17 00:48:19;;;;;;;6.00;5.30;;;18.70;66.50;;;;;;5072855;28;20182;-70
2023/08/17 00:50:48;;;;;;;5.10;4.60;;;18.70;65.80;;;;;;5072773;28;20178;-70
2023/08/17 00:53:16;;;;;;;5.80;5.10;;;18.70;65.40;;;;;;5072693;28;20205;-69
2023/08/17 00:55:42;;;;;;;6.47;5.87;;;18.60;66.00;;;;;;5072783;28;20473;-69
2023/08/17 00:58:07;;;;;;;5.67;5.10;;;18.60;66.00;;;;;;5054755;28;20424;-70
2023/08/17 01:00:33;;;;;;;6.57;5.13;;;18.60;65.10;;;;;;5072658;28;20790;-70
2023/08/17 01:02:59;;;;;;;7.60;4.53;;;18.50;64.80;;;;;;5072357;28;20248;-69
2023/08/17 01:05:24;;;;;;;5.50;4.83;;;18.50;64.90;;;;;;5054531;28;20297;-67
2023/08/17 01:07:50;;;;;;;6.23;4.70;;;18.40;64.30;;;;;;5072485;28;20193;-68
2023/08/17 01:10:16;;;;;;;6.73;4.53;;;18.40;65.60;;;;;;5072336;28;20174;-68
2023/08/17 01:13:14;;;;;;;6.37;5.10;;;18.40;65.00;;;;;;5072103;28;20639;-68
2023/08/17 01:15:49;;;;;;;4.37;3.97;;;18.40;66.00;;;;;;5072330;28;20420;-68
2023/08/17 01:18:25;;;;;;;6.23;5.03;;;18.40;66.60;;;;;;5072344;28;20482;-68
2023/08/17 01:20:53;;;;;;;6.17;4.43;;;18.40;66.60;;;;;;5072058;28;20753;-68
2023/08/17 01:23:19;;;;;;;8.60;6.17;;;18.30;66.50;;;;;;5071938;28;20460;-68
2023/08/17 01:25:45;;;;;;;5.97;5.37;;;18.30;66.40;;;;;;5072764;28;20795;-68
2023/08/17 01:28:10;;;;;;;6.93;4.83;;;18.30;65.80;;;;;;5071924;28;20208;-67
2023/08/17 01:31:03;;;;;;;6.90;5.20;;;18.30;67.30;;;;;;5072371;28;20177;-68
2023/08/17 01:33:39;;;;;;;6.27;5.67;;;18.20;66.20;;;;;;5072063;28;20176;-69
2023/08/17 01:36:19;;;;;;;6.47;5.40;;;18.20;66.20;;;;;;5072034;28;20724;-68
2023/08/17 01:38:45;;;;;;;8.47;5.57;;;18.10;66.20;;;;;;5072217;28;20707;-68
2023/08/17 01:43:47;;;;;;;7.07;5.90;;;18.10;64.70;;;;;;5070039;28;20472;-71
2023/08/17 01:46:17;;;;;;;6.00;5.20;;;18.10;64.50;;;;;;5071825;28;20409;-72
2023/08/17 01:48:43;;;;;;;5.63;4.93;;;18.10;65.10;;;;;;5071888;28;20454;-72
2023/08/17 01:51:10;;;;;;;5.40;4.90;;;18.10;65.20;;;;;;5071819;28;20435;-70
2023/08/17 01:53:36;;;;;;;5.33;4.10;;;18.00;66.10;;;;;;5071468;28;20428;-71
2023/08/17 01:56:01;;;;;;;7.10;5.63;;;18.00;66.00;;;;;;5071770;28;20466;-71
2023/08/17 01:58:27;;;;;;;6.23;4.83;;;18.00;64.80;;;;;;5071635;28;20204;-71
2023/08/17 02:00:53;;;;;;;6.37;5.30;;;18.00;63.30;;;;;;5071769;28;20182;-72
2023/08/17 02:03:18;;;;;;;8.97;5.63;;;18.00;64.20;;;;;;5071273;28;20648;-72
2023/08/17 02:05:47;;;;;;;10.80;5.07;;;18.00;64.20;;;;;;5071701;28;20181;-72
2023/08/17 02:08:13;;;;;;;8.43;5.60;;;18.00;63.60;;;;;;5071749;28;20177;-72
2023/08/17 02:10:38;;;;;;;5.60;4.97;;;18.00;63.30;;;;;;5071652;28;20496;-72
2023/08/17 02:13:04;;;;;;;7.00;5.90;;;18.00;63.40;;;;;;5071252;28;20197;-72
2023/08/17 02:15:30;;;;;;;6.10;5.50;;;18.00;62.90;;;;;;5071538;28;20227;-71
2023/08/17 02:18:00;;;;;;;5.50;4.77;;;17.90;62.30;;;;;;5071627;28;20177;-71
2023/08/17 02:20:25;;;;;;;5.33;4.83;;;17.90;62.80;;;;;;5071529;28;20411;-72
2023/08/17 02:22:50;;;;;;;6.07;5.33;;;17.90;61.60;;;;;;5071125;28;20449;-72
2023/08/17 02:25:16;;;;;;;5.60;5.10;;;17.80;63.20;;;;;;5070516;28;20185;-74
2023/08/17 02:27:42;;;;;;;6.93;4.90;;;17.80;61.80;;;;;;5071486;28;20205;-74
2023/08/17 02:30:08;;;;;;;9.40;7.20;;;17.80;61.20;;;;;;5071542;28;20174;-73
2023/08/17 02:32:33;;;;;;;10.30;7.23;;;17.70;62.60;;;;;;5071009;28;20203;-73
2023/08/17 02:34:59;;;;;;;7.60;6.80;;;17.60;62.80;;;;;;5071479;28;20419;-73
2023/08/17 02:37:24;;;;;;;6.97;6.37;;;17.60;62.40;;;;;;5071505;28;20644;-73
2023/08/17 02:42:34;;;;;;;8.83;7.43;;;17.60;62.10;;;;;;5074290;28;20250;-73
2023/08/17 02:44:59;;;;;;;9.00;8.13;;;17.60;61.70;;;;;;5074970;28;20408;-74
2023/08/17 02:47:25;;;;;;;9.83;8.83;;;17.60;62.60;;;;;;5074958;28;20271;-72
2023/08/17 02:49:50;;;;;;;10.17;8.53;;;17.60;61.30;;;;;;5073688;28;20239;-73
2023/08/17 02:52:16;;;;;;;9.60;8.43;;;17.50;61.80;;;;;;5074668;28;20193;-73
2023/08/17 02:54:42;;;;;;;9.63;8.53;;;17.50;62.40;;;;;;5074890;28;20186;-74
2023/08/17 02:57:08;;;;;;;9.67;7.10;;;17.50;62.60;;;;;;5074757;28;20197;-73
2023/08/17 02:59:33;;;;;;;8.60;7.13;;;17.40;62.20;;;;;;5074780;28;20273;-73
2023/08/17 03:01:59;;;;;;;6.83;6.07;;;17.40;63.00;;;;;;5074290;28;20476;-73
2023/08/17 03:04:24;;;;;;;8.53;7.73;;;17.40;63.80;;;;;;5074713;28;20232;-73
2023/08/17 03:06:50;;;;;;;7.50;6.80;;;17.40;63.10;;;;;;5074706;28;20243;-73
2023/08/17 03:09:16;;;;;;;8.53;5.50;;;17.30;64.50;;;;;;5074695;28;20642;-73
2023/08/17 03:11:41;;;;;;;8.17;6.43;;;17.40;63.80;;;;;;5074206;28;20559;-73
2023/08/17 03:14:07;;;;;;;6.60;5.37;;;17.40;63.30;;;;;;5074663;28;20261;-73
2023/08/17 03:16:32;;;;;;;6.20;5.60;;;17.40;64.40;;;;;;5074581;28;20178;-73
2023/08/17 03:18:58;;;;;;;7.10;4.97;;;17.40;64.30;;;;;;5074463;28;20181;-73
2023/08/17 03:21:24;;;;;;;6.80;6.17;;;17.40;63.80;;;;;;5074310;28;20178;-73
2023/08/17 03:23:49;;;;;;;6.07;5.43;;;17.40;64.00;;;;;;5074188;28;20545;-73
2023/08/17 03:26:15;;;;;;;5.03;4.53;;;17.40;63.40;;;;;;5074414;28;20166;-73
2023/08/17 03:28:41;;;;;;;5.30;4.23;;;17.40;64.20;;;;;;5074283;28;20607;-73
2023/08/17 03:31:08;;;;;;;5.33;4.57;;;17.30;64.10;;;;;;5074276;28;20170;-73
2023/08/17 03:33:35;;;;;;;5.20;4.70;;;17.30;64.10;;;;;;5073833;28;20481;-74
2023/08/17 03:36:00;;;;;;;5.90;4.63;;;17.40;63.50;;;;;;5074213;28;20404;-74
2023/08/17 03:38:26;;;;;;;5.90;4.90;;;17.30;64.10;;;;;;5074151;28;20412;-73
2023/08/17 03:40:52;;;;;;;8.57;6.30;;;17.30;64.10;;;;;;5074126;28;20658;-73
2023/08/17 03:43:17;;;;;;;5.80;5.30;;;17.30;65.50;;;;;;5073706;28;20288;-73
2023/08/17 03:45:43;;;;;;;6.10;5.50;;;17.30;64.80;;;;;;5074486;28;20415;-73
2023/08/17 03:48:09;;;;;;;6.27;5.03;;;17.30;65.20;;;;;;5074375;28;20165;-72
2023/08/17 03:50:34;;;;;;;6.37;5.77;;;17.30;66.20;;;;;;5074182;28;20170;-73
2023/08/17 03:53:00;;;;;;;7.60;4.43;;;17.30;66.40;;;;;;5073301;28;20432;-73
2023/08/17 03:55:25;;;;;;;7.17;4.90;;;17.30;65.10;;;;;;5073971;28;20178;-73
2023/08/17 03:57:51;;;;;;;5.47;4.83;;;17.20;65.30;;;;;;5073836;28;20231;-73
2023/08/17 04:00:17;;;;;;;5.70;4.63;;;17.10;65.70;;;;;;5074009;28;20174;-73
2023/08/17 04:02:43;;;;;;;8.00;4.83;;;17.10;67.90;;;;;;5073276;28;20239;-73
2023/08/17 04:05:09;;;;;;;5.20;4.70;;;17.10;66.70;;;;;;5073874;28;20174;-72
2023/08/17 04:07:35;;;;;;;5.87;4.70;;;17.10;66.90;;;;;;5073564;28;20412;-72
2023/08/17 04:10:01;;;;;;;6.43;4.27;;;17.10;68.00;;;;;;5073623;28;20415;-73
2023/08/17 04:12:27;;;;;;;5.70;5.10;;;17.10;68.00;;;;;;5073266;28;20428;-72
2023/08/17 04:14:52;;;;;;;7.10;5.43;;;17.10;68.00;;;;;;5073813;28;20248;-73
2023/08/17 04:17:18;;;;;;;6.10;5.50;;;17.10;68.00;;;;;;5074217;28;20171;-72
2023/08/17 04:19:43;;;;;;;5.50;5.00;;;17.10;70.10;;;;;;5073852;28;20174;-72
2023/08/17 04:22:09;;;;;;;5.40;4.83;;;17.10;70.00;;;;;;5073213;28;20256;-73
2023/08/17 04:24:35;;;;;;;5.83;4.90;;;17.20;69.20;;;;;;5073558;28;20455;-73
2023/08/17 04:27:00;;;;;;;7.00;5.20;;;17.20;70.00;;;;;;5073191;28;20939;-73
2023/08/17 04:29:26;;;;;;;6.30;5.33;;;17.30;68.80;;;;;;5073364;28;20175;-73
2023/08/17 04:31:52;;;;;;;7.23;5.50;;;17.40;68.60;;;;;;5072712;28;20196;-73
2023/08/17 04:34:17;;;;;;;6.77;6.07;;;17.50;68.30;;;;;;5073080;28;20173;-72
2023/08/17 04:36:43;;;;;;;7.70;6.87;;;17.60;68.40;;;;;;5073808;28;20266;-74
2023/08/17 04:39:09;;;;;;;7.00;6.33;;;17.70;68.50;;;;;;5072843;28;20169;-74
2023/08/17 04:41:34;;;;;;;8.00;4.97;;;17.80;68.00;;;;;;5072517;28;20194;-72
2023/08/17 04:44:00;;;;;;;6.37;5.10;;;17.90;68.00;;;;;;5073122;28;20509;-73
2023/08/17 04:46:25;;;;;;;8.10;6.50;;;18.00;67.70;;;;;;5073125;28;20232;-76
2023/08/17 04:48:52;;;;;;;6.70;5.13;;;18.20;65.30;;;;;;5074633;28;20281;-76
2023/08/17 04:51:17;;;;;;;7.07;5.60;;;18.30;64.50;;;;;;5072645;28;20636;-74
2023/08/17 04:53:43;;;;;;;11.33;7.70;;;18.40;64.70;;;;;;5072319;28;20465;-74
2023/08/17 04:56:08;;;;;;;8.00;5.63;;;18.60;64.20;;;;;;5072627;28;20178;-74
2023/08/17 04:58:34;;;;;;;7.50;6.70;;;18.80;61.40;;;;;;5072543;28;20173;-73
2023/08/17 05:01:00;;;;;;;9.80;8.17;;;18.90;61.00;;;;;;5072115;28;20189;-75
2023/08/17 05:03:25;;;;;;;13.70;8.60;;;19.00;59.40;;;;;;5071299;28;20255;-75
2023/08/17 05:05:54;;;;;;;8.83;7.93;;;19.10;58.90;;;;;;5072637;28;20185;-74
2023/08/17 05:08:21;;;;;;;12.53;8.20;;;19.20;56.90;;;;;;5072364;28;20182;-74
2023/08/17 05:10:47;;;;;;;15.00;11.00;;;19.20;56.80;;;;;;5072241;28;20488;-74
2023/08/17 05:13:13;;;;;;;8.67;7.77;;;19.20;57.50;;;;;;5070314;28;20527;-74
2023/08/17 05:15:38;;;;;;;9.90;8.10;;;19.30;56.70;;;;;;5072223;28;20200;-74
2023/08/17 05:18:04;;;;;;;11.93;8.70;;;19.40;56.10;;;;;;5072127;28;20260;-75
2023/08/17 05:20:30;;;;;;;10.50;7.23;;;19.50;55.80;;;;;;5072286;28;20205;-75
2023/08/17 05:22:55;;;;;;;8.87;7.70;;;19.60;55.00;;;;;;5071766;28;20494;-75
2023/08/17 05:25:22;;;;;;;10.17;8.67;;;19.70;51.80;;;;;;5072104;28;20612;-74
2023/08/17 05:27:48;;;;;;;11.17;9.40;;;19.80;50.30;;;;;;5072530;28;20174;-76
2023/08/17 05:30:14;;;;;;;7.87;6.47;;;19.90;50.10;;;;;;5072102;28;20412;-74
2023/08/17 05:32:40;;;;;;;8.90;7.30;;;20.00;50.20;;;;;;5071738;28;20436;-71
2023/08/17 05:35:06;;;;;;;10.10;7.83;;;20.00;50.20;;;;;;5072139;28;20416;-73
2023/08/17 05:37:31;;;;;;;11.00;8.57;;;20.00;49.00;;;;;;5072059;28;20189;-73
2023/08/17 05:39:57;;;;;;;11.33;9.43;;;20.20;48.30;;;;;;5072138;28;20646;-72
2023/08/17 05:42:23;;;;;;;16.70;9.80;;;20.20;47.10;;;;;;5071437;28;20217;-72
2023/08/17 05:44:48;;;;;;;14.57;10.73;;;20.40;46.90;;;;;;5071866;28;20174;-72
2023/08/17 05:47:17;;;;;;;12.70;11.07;;;20.10;48.60;;;;;;5071788;28;20178;-72
2023/08/17 05:49:43;;;;;;;13.03;9.70;;;19.90;51.90;;;;;;5071937;28;20174;-72
2023/08/17 05:52:08;;;;;;;14.67;10.10;;;19.90;52.00;;;;;;5071369;28;20779;-72
2023/08/17 05:54:34;;;;;;;11.83;8.50;;;19.90;52.80;;;;;;5071773;28;20170;-73
2023/08/17 05:56:59;;;;;;;11.10;8.90;;;19.90;52.40;;;;;;5071737;28;20268;-72
2023/08/17 05:59:25;;;;;;;9.33;7.63;;;20.00;51.10;;;;;;5070471;28;20657;-72
2023/08/17 06:01:50;;;;;;;9.17;6.57;;;20.00;49.10;;;;;;5071360;28;20247;-72
2023/08/17 06:04:16;;;;;;;8.80;6.70;;;20.10;50.30;;;;;;5071506;28;20206;-73
2023/08/17 06:06:41;;;;;;;11.27;9.27;;;20.20;48.70;;;;;;5071916;28;20178;-71
2023/08/17 06:09:08;;;;;;;10.07;7.80;;;20.40;48.70;;;;;;5072023;28;20181;-71
2023/08/17 06:11:34;;;;;;;10.83;9.67;;;20.50;45.00;;;;;;5071882;28;20196;-72
2023/08/17 06:14:02;;;;;;;7.43;6.50;;;20.60;44.20;;;;;;5071869;28;20794;-72
2023/08/17 06:16:28;;;;;;;10.43;7.57;;;20.70;42.10;;;;;;5075681;28;20260;-77
2023/08/17 06:18:53;;;;;;;12.60;8.50;;;20.50;43.60;;;;;;5076104;28;20447;-74
2023/08/17 06:21:19;;;;;;;8.97;7.03;;;20.50;42.80;;;;;;5075563;28;20174;-72
2023/08/17 06:23:44;;;;;;;10.80;8.20;;;20.70;42.30;;;;;;5075397;28;20206;-71
2023/08/17 06:26:10;;;;;;;9.80;7.60;;;21.00;40.40;;;;;;5075958;28;20466;-71
2023/08/17 06:28:35;;;;;;;6.90;5.53;;;21.20;38.50;;;;;;5075915;28;20653;-71
2023/08/17 06:31:01;;;;;;;7.93;6.07;;;21.50;37.20;;;;;;5075944;28;20188;-70
2023/08/17 06:33:26;;;;;;;9.77;6.60;;;22.20;34.70;;;;;;5075130;28;20197;-69
2023/08/17 06:35:52;;;;;;;6.60;5.90;;;22.60;28.90;;;;;;5075376;28;20170;-69
2023/08/17 06:38:18;;;;;;;8.43;5.07;;;22.80;27.10;;;;;;5075601;28;20182;-69
2023/08/17 06:40:45;;;;;;;6.07;5.00;;;23.20;24.70;;;;;;5075170;28;20247;-69
2023/08/17 06:43:11;;;;;;;6.70;5.60;;;23.30;24.70;;;;;;5073390;28;20221;-70
2023/08/17 06:45:36;;;;;;;7.13;4.87;;;23.80;24.00;;;;;;5069410;28;20420;-70
2023/08/17 06:48:02;;;;;;;7.60;5.23;;;24.30;20.50;;;;;;5071409;28;20405;-70
2023/08/17 06:50:28;;;;;;;7.30;5.23;;;24.10;20.40;;;;;;5070868;28;20635;-70
2023/08/17 06:52:54;;;;;;;5.77;4.23;;;24.10;19.40;;;;;;5071432;28;20289;-70
2023/08/17 06:55:20;;;;;;;5.30;4.57;;;25.80;20.10;;;;;;5071372;28;20523;-69
2023/08/17 06:57:46;;;;;;;4.17;3.77;;;28.30;11.80;;;;;;5071213;28;20854;-69
2023/08/17 07:00:13;;;;;;;5.70;4.43;;;30.40;6.70;;;;;;5071615;28;20189;-69
2023/08/17 07:02:38;;;;;;;5.97;5.30;;;32.60;1.10;;;;;;5070681;28;20471;-70
2023/08/17 07:05:05;;;;;;;7.53;5.33;;;34.80;1.00;;;;;;5070957;28;20427;-70
2023/08/17 07:07:33;;;;;;;6.47;5.97;;;35.50;1.00;;;;;;5071962;28;20185;-70
2023/08/17 07:09:59;;;;;;;6.67;6.00;;;35.30;1.00;;;;;;5069462;28;20427;-69
2023/08/17 07:12:24;;;;;;;6.00;5.60;;;34.60;1.00;;;;;;5070584;28;20436;-69
2023/08/17 07:14:50;;;;;;;7.97;7.27;;;34.40;1.00;;;;;;5071918;28;20211;-69
2023/08/17 07:17:16;;;;;;;7.50;6.87;;;33.90;1.00;;;;;;5071265;28;20178;-69
2023/08/17 07:19:42;;;;;;;7.20;6.47;;;32.90;1.00;;;;;;5062460;28;20489;-69
2023/08/17 07:22:07;;;;;;;6.23;5.70;;;32.80;1.00;;;;;;5065410;28;20205;-69
2023/08/17 07:24:33;;;;;;;7.27;6.60;;;34.30;1.00;;;;;;5066228;28;20183;-69
2023/08/17 07:26:58;;;;;;;5.83;5.20;;;33.40;1.00;;;;;;5060254;28;20177;-69
2023/08/17 07:29:24;;;;;;;6.77;6.27;;;32.40;1.00;;;;;;5070708;28;20580;-69
2023/08/17 07:31:50;;;;;;;6.80;6.17;;;32.00;1.00;;;;;;5070601;28;20252;-69
2023/08/17 07:34:15;;;;;;;6.70;6.13;;;32.10;1.00;;;;;;5069612;28;20200;-69
2023/08/17 07:36:44;;;;;;;6.70;6.10;;;31.90;1.00;;;;;;5070669;28;20213;-75
2023/08/17 07:39:10;;;;;;;7.93;6.73;;;32.90;1.00;;;;;;5073205;28;20431;-70
2023/08/17 07:41:39;;;;;;;6.30;5.70;;;33.40;1.00;;;;;;5072771;28;20799;-74
2023/08/17 07:44:05;;;;;;;7.47;6.87;;;32.40;1.00;;;;;;5046824;28;20684;-69
2023/08/17 07:46:31;;;;;;;7.03;6.43;;;31.70;1.00;;;;;;5062268;28;20433;-72
2023/08/17 07:48:56;;;;;;;7.70;5.63;;;29.90;1.00;;;;;;5053896;28;20614;-72
2023/08/17 07:51:22;;;;;;;7.47;6.77;;;29.00;2.70;;;;;;5054022;28;20624;-72
2023/08/17 07:53:47;;;;;;;5.57;5.03;;;27.90;4.90;;;;;;5054256;28;20201;-71
2023/08/17 07:56:13;;;;;;;6.87;5.70;;;26.70;8.20;;;;;;5054948;28;20190;-71
2023/08/17 07:58:39;;;;;;;9.00;7.77;;;25.90;11.90;;;;;;5056042;28;20179;-71
2023/08/17 08:01:05;;;;;;;6.20;5.47;;;25.70;13.70;;;;;;5055499;28;20448;-72
2023/08/17 08:03:31;;;;;;;7.43;5.43;;;26.00;12.70;;;;;;5053651;28;20214;-72
2023/08/17 08:05:56;;;;;;;5.77;5.17;;;26.80;11.10;;;;;;5054086;28;20507;-72
2023/08/17 08:08:22;;;;;;;7.87;7.07;;;27.00;10.70;;;;;;5054152;28;20624;-71
2023/08/17 08:10:47;;;;;;;6.23;5.63;;;27.50;8.70;;;;;;5055942;28;20187;-72
2023/08/17 08:13:14;;;;;;;6.53;5.57;;;27.60;7.70;;;;;;5054660;28;20296;-72
2023/08/17 08:15:39;;;;;;;7.17;5.37;;;28.50;6.30;;;;;;5054510;28;20187;-72
2023/08/17 08:18:05;;;;;;;7.77;7.07;;;29.90;4.20;;;;;;5053601;28;20420;-72
2023/08/17 08:20:30;;;;;;;7.50;6.80;;;30.90;1.30;;;;;;5053090;28;20257;-72
2023/08/17 08:22:56;;;;;;;8.97;8.07;;;30.80;1.00;;;;;;5052038;28;20260;-72
2023/08/17 08:25:21;;;;;;;9.10;6.50;;;31.10;1.00;;;;;;5053514;28;20249;-72
2023/08/17 08:27:47;;;;;;;8.17;7.30;;;30.10;1.00;;;;;;5054964;28;20194;-71
2023/08/17 08:30:13;;;;;;;8.20;7.00;;;29.70;2.50;;;;;;5054193;28;20253;-72
2023/08/17 08:32:38;;;;;;;10.70;8.17;;;29.60;2.40;;;;;;5053344;28;20198;-72
2023/08/17 08:35:04;;;;;;;7.17;6.47;;;29.50;2.90;;;;;;5053855;28;20190;-72
2023/08/17 08:37:30;;;;;;;7.50;6.70;;;29.90;1.80;;;;;;5053187;28;20183;-72
2023/08/17 08:39:56;;;;;;;7.57;6.73;;;30.90;1.00;;;;;;5053315;28;20494;-72
2023/08/17 08:42:23;;;;;;;8.80;7.60;;;31.00;1.00;;;;;;5052617;28;20210;-72
2023/08/17 08:44:50;;;;;;;8.50;7.50;;;31.10;1.00;;;;;;5051685;28;20182;-72
2023/08/17 08:47:17;;;;;;;10.70;6.90;;;30.30;1.00;;;;;;5052787;28;20421;-72
2023/08/17 08:49:55;;;;;;;8.43;6.17;;;30.10;1.60;;;;;;5052879;28;20424;-72
2023/08/17 08:52:23;;;;;;;9.33;8.47;;;30.90;1.00;;;;;;5052724;28;20429;-72
2023/08/17 08:54:51;;;;;;;8.70;7.30;;;31.40;1.00;;;;;;5052806;28;20420;-72
2023/08/17 08:57:18;;;;;;;8.70;7.40;;;30.60;1.00;;;;;;5052852;28;20420;-72
2023/08/17 08:59:46;;;;;;;7.67;6.80;;;29.00;3.50;;;;;;5052952;28;20413;-72
2023/08/17 09:02:15;;;;;;;8.73;7.33;;;29.00;4.60;;;;;;5052194;28;20551;-72
2023/08/17 09:04:43;;;;;;;8.77;7.97;;;29.50;3.50;;;;;;5052755;28;20970;-71
2023/08/17 09:07:10;;;;;;;11.20;8.33;;;28.50;4.70;;;;;;5052561;28;20792;-72
2023/08/17 09:09:37;;;;;;;9.30;7.73;;;27.30;8.00;;;;;;5052811;28;20405;-71
2023/08/17 09:12:04;;;;;;;10.20;6.77;;;26.40;11.70;;;;;;5052266;28;20852;-72
2023/08/17 09:14:30;;;;;;;11.60;7.77;;;25.90;14.20;;;;;;5051144;28;20421;-72
2023/08/17 09:16:58;;;;;;;10.80;9.70;;;25.40;15.70;;;;;;5052728;28;20409;-72
2023/08/17 09:19:25;;;;;;;10.80;7.77;;;25.30;15.90;;;;;;5051101;28;20182;-72
2023/08/17 09:21:50;;;;;;;13.20;9.37;;;25.40;16.40;;;;;;5052268;28;20758;-72
2023/08/17 09:24:16;;;;;;;12.20;9.60;;;24.90;17.60;;;;;;5044577;28;20461;-72
2023/08/17 09:26:41;;;;;;;10.90;7.97;;;25.00;18.80;;;;;;5034820;28;20278;-73
2023/08/17 09:29:18;;;;;;;10.93;8.43;;;25.20;18.10;;;;;;5031203;28;20179;-74
2023/08/17 09:31:43;;;;;;;11.10;8.90;;;25.10;18.10;;;;;;5045708;28;20186;-73
2023/08/17 09:34:09;;;;;;;13.93;8.03;;;25.00;18.80;;;;;;5051852;28;20425;-71
2023/08/17 09:36:39;;;;;;;10.67;7.67;;;24.90;18.70;;;;;;5051712;28;20181;-71
2023/08/17 09:39:04;;;;;;;9.00;7.97;;;24.90;19.90;;;;;;5051282;28;20179;-72
2023/08/17 09:41:30;;;;;;;10.53;9.30;;;25.10;18.50;;;;;;5051864;28;20551;-72
2023/08/17 09:43:56;;;;;;;8.40;6.77;;;25.20;19.00;;;;;;5051401;28;20224;-72
2023/08/17 09:46:21;;;;;;;8.80;7.23;;;25.60;19.10;;;;;;5049574;28;20189;-71
2023/08/17 09:48:47;;;;;;;9.77;6.00;;;25.90;17.10;;;;;;5038494;28;20174;-71
2023/08/17 09:51:17;;;;;;;7.97;7.20;;;26.20;15.90;;;;;;5051438;28;20170;-72
2023/08/17 09:53:43;;;;;;;8.30;6.73;;;26.60;14.30;;;;;;5051367;28;20445;-72
2023/08/17 09:56:10;;;;;;;9.23;7.57;;;26.80;13.90;;;;;;5051838;28;20504;-72
2023/08/17 09:58:37;;;;;;;7.20;5.93;;;26.90;13.10;;;;;;5051589;28;20186;-72
2023/08/17 10:01:07;;;;;;;7.57;6.77;;;27.50;12.30;;;;;;5050314;28;20421;-72
2023/08/17 10:03:37;;;;;;;6.30;5.50;;;27.90;11.10;;;;;;5051244;28;20866;-72
2023/08/17 10:06:09;;;;;;;19.77;9.00;;;27.60;11.50;;;;;;5051621;28;20405;-72
2023/08/17 10:08:43;;;;;;;12.57;8.50;;;27.90;10.90;;;;;;5051345;28;20409;-72
2023/08/17 10:11:09;;;;;;;7.13;5.90;;;27.90;11.10;;;;;;5052003;28;20443;-71
2023/08/17 10:13:45;;;;;;;6.20;5.53;;;28.10;9.90;;;;;;5051705;28;20480;-71
2023/08/17 10:16:26;;;;;;;10.63;6.80;;;28.40;9.60;;;;;;5051707;28;20494;-71
2023/08/17 10:19:03;;;;;;;23.73;9.07;;;28.20;9.90;;;;;;5051713;28;20511;-71
2023/08/17 10:21:39;;;;;;;6.40;5.90;;;28.40;8.80;;;;;;5050854;28;20424;-71
2023/08/17 10:24:07;;;;;;;9.20;7.63;;;28.30;8.70;;;;;;5051771;28;20468;-71
2023/08/17 10:26:33;;;;;;;8.00;7.20;;;28.40;8.70;;;;;;5051041;28;20794;-71
2023/08/17 10:29:02;;;;;;;8.90;5.77;;;28.10;9.00;;;;;;5050333;28;20799;-71
2023/08/17 10:31:28;;;;;;;7.03;5.00;;;28.00;10.10;;;;;;5051337;28;20413;-71
2023/08/17 10:33:55;;;;;;;51.73;17.27;;;28.20;9.20;;;;;;5051660;28;20457;-71
2023/08/17 10:36:21;;;;;;;6.20;5.60;;;28.30;9.00;;;;;;5051668;28;20898;-71
2023/08/17 10:38:47;;;;;;;8.87;6.70;;;28.40;9.40;;;;;;5051323;28;20789;-72
2023/08/17 10:41:14;;;;;;;6.70;6.00;;;28.50;8.30;;;;;;5051914;28;20425;-69
2023/08/17 10:43:56;;;;;;;7.30;6.47;;;28.70;9.20;;;;;;5050849;28;20700;-68
2023/08/17 10:46:32;;;;;;;7.70;6.63;;;28.60;8.50;;;;;;5066577;28;20430;-70
2023/08/17 10:49:05;;;;;;;7.10;6.40;;;28.90;7.90;;;;;;5051044;28;20420;-70
2023/08/17 10:51:31;;;;;;;6.80;5.13;;;28.90;7.80;;;;;;5051076;28;20766;-71
2023/08/17 10:54:00;;;;;;;6.13;5.53;;;29.20;8.50;;;;;;5051054;28;20441;-70
2023/08/17 10:56:28;;;;;;;6.97;6.43;;;29.40;7.70;;;;;;5051321;28;20274;-71
2023/08/17 10:58:54;;;;;;;8.77;6.00;;;29.40;6.30;;;;;;5049759;28;20452;-74
2023/08/17 11:01:40;;;;;;;6.63;6.00;;;29.40;6.50;;;;;;5051611;28;20417;-71
2023/08/17 11:04:16;;;;;;;6.80;6.20;;;29.00;6.80;;;;;;5055187;28;20217;-71
2023/08/17 11:06:43;;;;;;;7.30;6.70;;;29.30;6.20;;;;;;5054010;28;20471;-72
2023/08/17 11:09:09;;;;;;;6.37;5.70;;;29.60;4.70;;;;;;5055240;28;20474;-72
2023/08/17 11:11:34;;;;;;;7.37;6.60;;;29.80;5.80;;;;;;5055577;28;20416;-72
2023/08/17 11:14:00;;;;;;;5.90;5.30;;;29.20;4.90;;;;;;5071088;28;20237;-72
2023/08/17 11:16:26;;;;;;;11.33;4.80;;;29.20;6.70;;;;;;5055741;28;20183;-72
2023/08/17 11:18:51;;;;;;;6.07;5.40;;;29.40;6.30;;;;;;5055060;28;20178;-72
2023/08/17 11:21:17;;;;;;;6.47;5.83;;;29.30;4.80;;;;;;5053435;28;20307;-71
2023/08/17 11:23:43;;;;;;;5.90;5.37;;;29.00;5.90;;;;;;5052804;28;20219;-72
2023/08/17 11:26:09;;;;;;;5.73;5.23;;;29.10;7.20;;;;;;5054719;28;20413;-73
2023/08/17 11:28:40;;;;;;;6.07;5.57;;;29.10;7.30;;;;;;5054496;28;20181;-72
2023/08/17 11:31:07;;;;;;;5.53;5.03;;;29.20;7.50;;;;;;5054618;28;20421;-72
2023/08/17 11:33:34;;;;;;;5.40;4.90;;;29.30;7.70;;;;;;5053861;28;20934;-71
2023/08/17 11:36:02;;;;;;;7.80;5.50;;;29.20;7.40;;;;;;5054663;28;20509;-72
2023/08/17 11:38:38;;;;;;;5.40;4.93;;;29.10;8.50;;;;;;5054587;28;20417;-72
2023/08/17 11:41:04;;;;;;;6.60;5.43;;;29.00;8.70;;;;;;5054185;28;20429;-73
2023/08/17 11:43:32;;;;;;;6.37;5.77;;;28.80;8.40;;;;;;5053806;28;20897;-72
2023/08/17 11:46:01;;;;;;;8.43;6.67;;;28.60;8.30;;;;;;5054209;28;20197;-72
2023/08/17 11:48:27;;;;;;;6.67;5.53;;;28.50;8.30;;;;;;5052794;28;20918;-72
2023/08/17 11:50:54;;;;;;;7.60;5.77;;;28.60;8.20;;;;;;5054087;28;20524;-71
2023/08/17 11:53:20;;;;;;;8.93;6.73;;;28.60;8.20;;;;;;5053687;28;20437;-72
2023/08/17 11:55:46;;;;;;;5.73;5.13;;;28.60;9.10;;;;;;5051441;28;20515;-72
2023/08/17 11:58:15;;;;;;;5.47;4.97;;;28.60;8.60;;;;;;5054039;28;20457;-70
2023/08/17 12:00:46;;;;;;;7.30;5.43;;;28.00;10.00;;;;;;5052399;28;20436;-71
2023/08/17 12:03:15;;;;;;;7.27;6.57;;;28.20;9.90;;;;;;5053484;28;20464;-72
2023/08/17 12:05:41;;;;;;;5.70;5.20;;;28.20;10.30;;;;;;5053872;28;20452;-72
2023/08/17 12:08:08;;;;;;;5.93;5.33;;;28.20;10.20;;;;;;5053545;28;20775;-72
2023/08/17 12:10:34;;;;;;;7.40;6.70;;;28.20;9.70;;;;;;5053441;28;20429;-72
2023/08/17 12:13:00;;;;;;;5.53;4.97;;;28.10;10.30;;;;;;5051683;28;20449;-71
2023/08/17 12:15:35;;;;;;;6.53;5.90;;;28.00;10.60;;;;;;5053490;28;20421;-72
2023/08/17 12:18:03;;;;;;;6.27;5.67;;;27.80;11.50;;;;;;5053595;28;20960;-72
2023/08/17 12:20:29;;;;;;;9.53;7.20;;;27.60;12.40;;;;;;5053303;28;20523;-72
2023/08/17 12:22:57;;;;;;;6.03;5.43;;;27.50;13.00;;;;;;5052956;28;20471;-72
2023/08/17 12:25:23;;;;;;;8.33;7.23;;;27.20;13.40;;;;;;5053487;28;20470;-72
2023/08/17 12:27:49;;;;;;;7.70;5.67;;;27.20;14.10;;;;;;5053204;28;20420;-72
2023/08/17 12:30:26;;;;;;;9.20;8.40;;;27.00;13.70;;;;;;5053081;28;20954;-72
2023/08/17 12:32:52;;;;;;;6.50;5.90;;;26.80;15.40;;;;;;5052861;28;20256;-71
2023/08/17 12:35:17;;;;;;;8.40;5.37;;;26.70;15.50;;;;;;5053073;28;20428;-72
2023/08/17 12:37:43;;;;;;;6.10;5.50;;;26.70;15.50;;;;;;5053142;28;20191;-72
2023/08/17 12:40:09;;;;;;;5.93;5.33;;;26.60;15.10;;;;;;5053220;28;20182;-72
2023/08/17 12:42:35;;;;;;;7.27;5.43;;;26.40;16.20;;;;;;5052604;28;20214;-72
2023/08/17 12:45:01;;;;;;;6.70;6.10;;;26.30;16.60;;;;;;5053150;28;20474;-71
2023/08/17 12:47:26;;;;;;;6.43;5.90;;;26.30;17.00;;;;;;5052744;28;20187;-71
2023/08/17 12:49:52;;;;;;;5.87;5.30;;;26.40;17.10;;;;;;5052996;28;20254;-71
2023/08/17 12:52:17;;;;;;;7.50;5.27;;;26.40;18.10;;;;;;5049589;28;20260;-72